Latest Weather Observations for Pirlangimpi

IDD60801

Issued at 8:31 am CST Tuesday 4 August 2015 (issued every 30 minutes, with the page automatically refreshed every 10 minutes)

About weather observations | Map of weather stations | Latest weather observations for NT | Other Formats
Station Details ID: 014142 Name: PIRLANGIMPI AIRPORT Lat: -11.40 Lon: 130.42 Height: 18.3 m
Data from the previous 72 hours. | See also: Recent months at Pirlangimpi
Date/Time
CST
Temp
°C
App
Temp
°C
Dew
Point
Rel
Hum
%
Delta-T
°C
Wind Press
QNH
hPa
Press
MSL
hPa
Rain
since 9 am
mm
Dir
 
Spd
km/h
Gust
km/h
Spd
kts
Gust
kts
04/08:30am 22.2 25.7 19.6 85 1.7 CALM 0 0 0 0 1016.2 1016.1 0.0
04/08:00am 19.7 22.4 17.7 88 1.2 CALM 0 0 0 0 1015.9 1015.8 0.0
04/07:30am 18.7 20.4 16.3 86 1.4 SE 2 4 1 2 1015.6 1015.5 0.0
04/07:00am 18.7 20.4 16.1 85 1.5 SE 2 4 1 2 1015.4 1015.3 0.0
04/06:30am 19.0 20.4 16.4 85 1.6 SE 4 4 2 2 1015.2 1015.1 0.0
04/06:00am 18.7 20.4 16.1 85 1.5 SSE 2 4 1 2 1014.8 1014.7 0.0
04/05:30am 19.1 21.2 16.3 84 1.7 CALM 0 0 0 0 1014.7 1014.6 0.0
04/05:00am 19.8 22.1 16.8 83 1.8 CALM 0 2 0 1 1014.7 1014.6 0.0
04/04:30am 20.4 22.5 17.2 82 2.0 SE 2 4 1 2 1014.9 1014.8 0.0
04/04:00am 20.9 22.8 17.7 82 2.0 SE 4 4 2 2 1014.9 1014.8 0.0
04/03:30am 20.6 22.7 18.0 85 1.6 SE 4 6 2 3 1014.8 1014.7 0.0
04/03:00am 21.1 23.1 18.7 86 1.5 E 6 7 3 4 1015.0 1014.9 0.0
04/02:30am 20.5 22.9 18.8 90 1.1 SE 4 4 2 2 1015.1 1015.0 0.0
04/02:00am 20.0 22.8 18.0 88 1.2 CALM 0 4 0 2 1015.3 1015.2 0.0
04/01:30am 20.2 23.1 18.3 89 1.2 CALM 0 0 0 0 1015.5 1015.4 0.0
04/01:00am 20.5 23.5 18.4 88 1.3 CALM 0 0 0 0 1015.6 1015.5 0.0
04/12:30am 21.0 24.2 18.8 87 1.4 CALM 0 0 0 0 1015.7 1015.6 0.0
04/12:00am 21.3 24.4 18.7 85 1.6 CALM 0 0 0 0 1015.7 1015.6 0.0
 
Date/Time
CST
Temp
°C
App
Temp
°C
Dew
Point
Rel
Hum
%
Delta-T
°C
Wind Press
QNH
hPa
Press
MSL
hPa
Rain
since 9 am
mm
Dir
 
Spd
km/h
Gust
km/h
Spd
kts
Gust
kts
03/11:30pm 21.5 24.6 18.7 84 1.8 CALM 0 4 0 2 1015.6 1015.5 0.0
03/11:00pm 22.1 24.9 18.9 82 2.0 WNW 2 6 1 3 1015.5 1015.4 0.0
03/10:30pm 22.2 24.9 17.8 76 2.7 CALM 0 0 0 0 1015.4 1015.3 0.0
03/10:00pm 23.6 26.0 18.7 74 3.1 E 4 7 2 4 1015.0 1014.9 0.0
03/09:30pm 23.9 25.6 18.5 72 3.4 ENE 7 13 4 7 1014.7 1014.6 0.0
03/09:00pm 24.3 25.1 18.2 68 3.8 ENE 11 17 6 9 1014.4 1014.3 0.0
03/08:30pm 24.5 25.2 18.0 67 4.1 ENE 11 15 6 8 1014.2 1014.1 0.0
03/08:00pm 25.1 25.7 17.8 64 4.6 ENE 11 15 6 8 1013.8 1013.7 0.0
03/07:30pm 25.9 26.7 17.3 59 5.4 NE 9 15 5 8 1013.4 1013.3 0.0
03/07:00pm 27.0 27.6 15.7 50 6.9 NE 7 15 4 8 1013.2 1013.1 0.0
03/06:30pm 29.0 28.0 12.4 36 9.7 ENE 9 15 5 8 1013.0 1012.9 0.0
03/06:00pm 30.1 28.7 12.1 33 10.5 E 11 19 6 10 1013.0 1012.9 0.0
03/05:30pm 30.5 28.6 11.9 31 10.9 E 13 20 7 11 1012.7 1012.6 0.0
03/05:00pm 31.0 28.9 12.4 32 11.0 E 15 26 8 14 1012.6 1012.5 0.0
03/04:30pm 31.4 28.2 11.2 29 11.7 E 19 30 10 16 1012.5 1012.4 0.0
03/04:00pm 32.7 29.7 11.8 28 12.3 E 19 30 10 16 1012.3 1012.2 0.0
03/03:30pm 32.8 29.3 10.2 25 13.0 ENE 19 32 10 17 1012.5 1012.4 0.0
03/03:00pm 33.9 30.7 11.1 25 13.4 NE 19 30 10 16 1012.6 1012.5 0.0
03/02:30pm 32.5 29.3 11.1 27 12.5 E 19 33 10 18 1012.8 1012.7 0.0
03/02:00pm 33.0 31.3 12.6 29 12.2 E 13 26 7 14 1013.4 1013.3 0.0
03/01:30pm 32.1 30.5 15.1 35 10.5 E 17 28 9 15 1013.8 1013.7 0.0
03/01:00pm 31.9 30.9 16.6 39 9.7 ENE 17 30 9 16 1014.4 1014.3 0.0
03/12:30pm 31.4 31.5 16.6 41 9.3 ENE 11 20 6 11 1015.0 1014.9 0.0
03/12:00pm 31.1 31.8 17.0 42 8.9 ENE 9 19 5 10 1015.4 1015.3 0.0
03/11:30am 30.5 31.1 17.6 46 8.2 E 11 20 6 11 1015.9 1015.8 0.0
03/11:00am 29.8 30.7 18.3 50 7.4 E 11 17 6 9 1016.4 1016.3 0.0
03/10:30am 29.2 30.5 19.2 54 6.5 E 11 19 6 10 1016.6 1016.5 0.0
03/10:00am 27.5 28.3 19.0 59 5.5 E 13 20 7 11 1016.8 1016.7 0.0
03/09:30am 26.8 28.5 20.2 67 4.3 ENE 11 19 6 10 1016.8 1016.7 0.0
03/09:00am 25.5 27.4 20.5 74 3.3 E 11 20 6 11 1016.8 1016.7 0.0
03/08:30am 24.3 27.0 20.6 80 2.4 ESE 7 13 4 7 1016.7 1016.6 0.0
03/08:00am 21.9 24.5 19.3 85 1.7 SE 4 7 2 4 1016.4 1016.3 0.0
03/07:30am 21.6 24.6 19.2 86 1.5 SE 2 4 1 2 1016.0 1015.9 0.0
03/07:00am 21.2 24.3 18.6 85 1.6 CALM 0 0 0 0 1015.7 1015.6 0.0
03/06:30am 21.3 24.1 18.9 86 1.5 ESE 2 4 1 2 1015.6 1015.5 0.0
03/06:00am 21.0 23.5 19.1 89 1.2 SE 4 6 2 3 1015.5 1015.4 0.0
03/05:30am 20.3 23.0 18.6 90 1.1 SE 2 4 1 2 1015.3 1015.2 0.0
03/05:00am 20.6 23.0 18.9 90 1.1 SSE 4 6 2 3 1015.3 1015.2 0.0
03/04:30am 20.7 23.9 18.8 89 1.2 CALM 0 0 0 0 1015.1 1015.0 0.0
03/04:00am 21.2 24.2 19.3 89 1.2 SE 2 4 1 2 1015.1 1015.0 0.0
03/03:30am 21.8 24.6 19.7 88 1.3 SSE 4 6 2 3 1015.3 1015.2 0.0
03/03:00am 22.0 24.6 20.1 89 1.2 SSW 6 9 3 5 1015.4 1015.3 0.0
03/02:30am 22.1 24.5 19.6 86 1.6 S 6 7 3 4 1015.3 1015.2 0.0
03/02:00am 22.3 25.0 19.5 84 1.8 SSE 4 6 2 3 1015.4 1015.3 0.0
03/01:30am 22.5 24.3 19.5 83 1.9 NE 9 13 5 7 1015.3 1015.2 0.0
03/01:00am 22.6 24.3 19.4 82 2.0 NE 9 15 5 8 1015.4 1015.3 0.0
03/12:30am 22.9 24.6 19.3 80 2.3 NE 9 13 5 7 1015.5 1015.4 0.0
03/12:00am 23.1 25.0 19.7 81 2.2 ENE 9 15 5 8 1015.4 1015.3 0.0
 
Date/Time
CST
Temp
°C
App
Temp
°C
Dew
Point
Rel
Hum
%
Delta-T
°C
Wind Press
QNH
hPa
Press
MSL
hPa
Rain
since 9 am
mm
Dir
 
Spd
km/h
Gust
km/h
Spd
kts
Gust
kts
02/11:30pm 22.9 25.0 19.3 80 2.3 ENE 7 13 4 7 1015.6 1015.5 0.0
02/11:00pm 22.7 24.7 19.1 80 2.3 NE 7 11 4 6 1015.6 1015.5 0.0
02/10:30pm 22.6 24.5 19.0 80 2.3 NE 7 9 4 5 1015.5 1015.4 0.0
02/10:00pm 22.7 24.8 18.9 79 2.4 NE 6 9 3 5 1015.2 1015.1 0.0
02/09:30pm 22.9 24.7 18.7 77 2.6 NE 7 11 4 6 1015.2 1015.1 0.0
02/09:00pm 23.1 24.2 17.1 69 3.7 NE 7 11 4 6 1014.9 1014.8 0.0
02/08:30pm 23.4 23.5 13.8 54 5.6 NE 6 11 3 6 1014.6 1014.5 0.0
02/08:00pm 24.4 24.0 12.4 47 6.9 ENE 6 6 3 3 1014.2 1014.1 0.0
02/07:30pm 25.7 25.2 12.2 43 7.8 ENE 6 9 3 5 1013.9 1013.8 0.0
02/07:00pm 27.3 26.5 11.7 37 9.0 E 7 11 4 6 1013.5 1013.4 0.0
02/06:30pm 28.3 27.5 10.9 34 9.9 E 6 9 3 5 1013.3 1013.2 0.0
02/06:00pm 29.3 27.8 10.4 31 10.7 ESE 9 15 5 8 1013.3 1013.2 0.0
02/05:30pm 30.1 27.5 10.6 30 11.1 ESE 15 26 8 14 1013.2 1013.1 0.0
02/05:00pm 30.5 28.7 13.3 35 10.3 E 15 30 8 16 1013.0 1012.9 0.0
02/04:30pm 30.4 29.4 14.5 38 9.7 ENE 13 17 7 9 1012.9 1012.8 0.0
02/04:00pm 30.5 29.8 14.2 37 9.9 E 11 20 6 11 1012.8 1012.7 0.0
02/03:30pm 31.4 30.4 14.5 35 10.3 E 13 22 7 12 1012.9 1012.8 0.0
02/03:00pm 32.0 31.7 15.5 37 10.2 E 11 19 6 10 1013.2 1013.1 0.0
02/02:30pm 31.0 30.6 14.2 36 10.2 SE 9 19 5 10 1013.6 1013.5 0.0
02/02:00pm 31.2 30.3 14.8 37 10.0 ENE 13 22 7 12 1014.2 1014.1 0.0
02/01:30pm 30.9 30.3 15.7 39 9.4 ENE 13 24 7 13 1014.8 1014.7 0.0
02/01:00pm 31.1 32.2 17.0 42 8.9 ENE 7 17 4 9 1015.3 1015.2 0.0
02/12:30pm 29.6 29.7 16.4 45 8.2 ENE 11 26 6 14 1015.8 1015.7 0.0
02/12:00pm 29.4 29.5 16.6 46 8.0 ESE 11 20 6 11 1016.3 1016.2 0.0
02/11:30am 29.3 29.8 17.5 49 7.5 ESE 11 19 6 10 1016.6 1016.5 0.0
02/11:00am 28.3 28.8 18.4 55 6.3 E 13 20 7 11 1016.9 1016.8 0.0
02/10:30am 27.1 27.7 18.7 60 5.4 E 13 19 7 10 1017.2 1017.1 0.0
02/10:00am 26.4 26.4 19.0 63 4.7 ESE 17 28 9 15 1017.5 1017.4 0.0
02/09:30am 25.3 27.0 19.4 70 3.8 E 9 15 5 8 1017.4 1017.3 0.0
02/09:00am 24.0 27.4 20.1 79 2.5 SSE 2 6 1 3 1017.1 1017.0 0.0
02/08:30am 22.3 25.9 19.7 85 1.7 CALM 0 2 0 1 1016.7 1016.6 0.0
02/08:00am 21.5 24.1 19.2 87 1.5 ESE 4 6 2 3 1016.3 1016.2 0.0
02/07:30am 19.9 22.1 18.4 91 0.9 ESE 4 6 2 3 1015.9 1015.8 0.0
02/07:00am 19.3 21.7 18.0 92 0.8 ENE 2 6 1 3 1015.7 1015.6 0.0
02/06:30am 19.4 21.5 18.1 92 0.8 E 4 7 2 4 1015.4 1015.3 0.0
02/06:00am 19.2 21.3 18.0 93 0.7 E 4 6 2 3 1015.0 1014.9 0.0
02/05:30am 19.1 21.1 17.9 93 0.7 ENE 4 6 2 3 1015.0 1014.9 0.0
02/05:00am 19.1 21.9 17.9 93 0.7 CALM 0 2 0 1 1014.9 1014.8 0.0
02/04:30am 18.9 20.7 17.4 91 0.9 SE 4 4 2 2 1014.9 1014.8 0.0
02/04:00am 19.1 21.8 17.8 92 0.8 CALM 0 0 0 0 1014.7 1014.6 0.0
02/03:30am 19.0 21.7 17.7 92 0.8 CALM 0 0 0 0 1014.6 1014.5 0.0
02/03:00am 18.9 21.4 17.2 90 1.0 CALM 0 0 0 0 1014.5 1014.4 0.0
02/02:30am 19.2 21.7 17.3 89 1.2 CALM 0 0 0 0 1014.6 1014.5 0.0
02/02:00am 19.6 22.5 18.1 91 0.9 CALM 0 0 0 0 1014.7 1014.6 0.0
02/01:30am 19.6 22.4 17.9 90 1.0 CALM 0 0 0 0 1014.9 1014.8 0.0
02/01:00am 19.6 22.2 17.4 87 1.3 CALM 0 0 0 0 1014.8 1014.7 0.0
02/12:30am 20.0 22.7 17.8 87 1.4 CALM 0 0 0 0 1015.0 1014.9 0.0
02/12:00am 20.3 23.2 18.1 87 1.4 CALM 0 0 0 0 1015.1 1015.0 0.0
 
Date/Time
CST
Temp
°C
App
Temp
°C
Dew
Point
Rel
Hum
%
Delta-T
°C
Wind Press
QNH
hPa
Press
MSL
hPa
Rain
since 9 am
mm
Dir
 
Spd
km/h
Gust
km/h
Spd
kts
Gust
kts
01/11:30pm 20.3 23.1 17.9 86 1.5 CALM 0 0 0 0 1015.1 1015.0 0.0
01/11:00pm 20.6 22.9 17.8 84 1.7 NE 2 6 1 3 1015.2 1015.1 0.0
01/10:30pm 20.9 23.4 18.1 84 1.7 ENE 2 6 1 3 1015.0 1014.9 0.0
01/10:00pm 20.9 23.5 17.5 81 2.1 CALM 0 0 0 0 1014.8 1014.7 0.0
01/09:30pm 21.0 23.5 17.2 79 2.3 CALM 0 0 0 0 1014.4 1014.3 0.0
01/09:00pm 21.7 24.5 17.9 79 2.4 CALM 0 0 0 0 1014.0 1013.9 0.0
01/08:30pm 22.4 25.2 18.0 76 2.7 CALM 0 0 0 0 1013.6 1013.5 0.0
01/08:00pm 23.0 25.6 17.5 71 3.4 CALM 0 0 0 0 1013.4 1013.3 0.0
01/07:30pm 23.6 26.1 17.3 67 3.9 CALM 0 6 0 3 1013.1 1013.0 0.0
01/07:00pm 24.5 25.3 14.9 55 5.7 NW 4 6 2 3 1012.7 1012.6 0.0
01/06:30pm 26.9 27.6 14.6 46 7.4 E 4 6 2 3 1012.5 1012.4 0.0
01/06:00pm 28.5 28.4 14.0 41 8.7 ENE 7 11 4 6 1012.4 1012.3 0.0
01/05:30pm 29.5 28.7 14.1 39 9.3 E 11 15 6 8 1012.4 1012.3 0.0
01/05:00pm 30.1 28.1 13.8 37 9.8 ENE 17 24 9 13 1012.2 1012.1 0.0
01/04:30pm 31.1 29.3 13.4 34 10.6 ENE 15 22 8 12 1012.2 1012.1 0.0
01/04:00pm 31.1 29.3 13.4 34 10.6 E 15 26 8 14 1012.1 1012.0 0.0
01/03:30pm 32.4 31.2 15.0 35 10.7 NE 15 24 8 13 1012.1 1012.0 0.0
01/03:00pm 31.5 30.5 14.6 36 10.3 ENE 13 22 7 12 1012.4 1012.3 0.0
01/02:30pm 32.0 32.0 15.1 36 10.4 E 9 17 5 9 1012.7 1012.6 0.0
01/02:00pm 31.4 31.2 15.8 39 9.7 E 11 20 6 11 1013.1 1013.0 0.0
01/01:30pm 30.3 30.9 15.2 40 9.3 SE 6 11 3 6 1013.6 1013.5 0.0
01/01:00pm 30.5 31.1 16.9 44 8.6 E 9 17 5 9 1014.0 1013.9 0.0
01/12:30pm 30.3 29.9 16.3 42 8.7 ENE 13 26 7 14 1014.6 1014.5 0.0
01/12:00pm 30.3 30.5 16.7 44 8.5 ESE 11 24 6 13 1015.1 1015.0 0.0
01/11:30am 30.3 30.4 17.4 46 8.2 E 13 22 7 12 1015.4 1015.3 0.0
01/11:00am 29.0 28.9 16.9 48 7.6 ESE 13 24 7 13 1015.6 1015.5 0.0
01/10:30am 28.4 29.0 18.5 55 6.3 E 13 22 7 12 1015.9 1015.8 0.0
01/10:00am 27.5 28.6 19.6 62 5.1 E 13 22 7 12 1016.0 1015.9 0.0
01/09:30am 26.3 27.3 20.2 69 4.0 E 15 26 8 14 1015.9 1015.8 0.0
01/09:00am 24.5 26.4 20.6 79 2.5 E 11 20 6 11 1015.8 1015.7 0.0

Other Formats:

Comma delimited format used in spreadsheet applications
http://www.bom.gov.au/fwo/IDD60801/IDD60801.94119.axf

JavaScript Object Notation format (JSON) in row-major order
http://www.bom.gov.au/fwo/IDD60801/IDD60801.94119.json